createdAt,value
2022-10-13T00:01:29.476Z,15.00
2022-10-13T00:05:11.466Z,15.00
2022-10-13T00:08:54.138Z,15.00
2022-10-13T00:12:39.871Z,15.00
2022-10-13T00:16:22.449Z,14.90
2022-10-13T00:20:05.873Z,15.00
2022-10-13T00:23:48.000Z,14.90
2022-10-13T00:27:29.874Z,14.90
2022-10-13T00:31:22.261Z,14.90
2022-10-13T00:35:04.312Z,14.80
2022-10-13T00:38:47.346Z,14.80
2022-10-13T00:42:29.278Z,14.80
2022-10-13T00:46:11.072Z,14.80
2022-10-13T00:49:55.036Z,14.80
2022-10-13T00:53:39.232Z,14.80
2022-10-13T00:57:21.195Z,14.70
2022-10-13T01:01:05.399Z,14.70
2022-10-13T01:04:48.102Z,14.70
2022-10-13T01:08:30.306Z,14.60
2022-10-13T01:12:36.963Z,14.60
2022-10-13T01:16:27.609Z,14.60
2022-10-13T01:20:50.565Z,14.50
2022-10-13T01:24:54.058Z,14.60
2022-10-13T01:28:51.106Z,14.50
2022-10-13T01:32:45.041Z,14.50
2022-10-13T01:36:51.445Z,14.50
2022-10-13T01:40:39.399Z,14.50
2022-10-13T01:44:43.558Z,14.50
2022-10-13T01:48:27.412Z,14.50
2022-10-13T01:52:17.145Z,14.40
2022-10-13T01:56:00.475Z,14.40
2022-10-13T01:59:42.374Z,14.40
2022-10-13T02:03:34.501Z,14.40
2022-10-13T02:07:35.267Z,14.40
2022-10-13T02:11:20.702Z,14.40
2022-10-13T02:15:04.440Z,14.40
2022-10-13T02:18:47.231Z,14.40
2022-10-13T02:22:33.931Z,14.30
2022-10-13T02:26:16.259Z,14.30
2022-10-13T02:29:58.254Z,14.30
2022-10-13T02:33:40.288Z,14.30
2022-10-13T02:37:22.240Z,14.30
2022-10-13T02:41:04.414Z,14.20
2022-10-13T02:44:46.292Z,14.20
2022-10-13T02:48:28.099Z,14.20
2022-10-13T02:52:09.916Z,14.10
2022-10-13T02:55:51.710Z,14.00
2022-10-13T02:59:33.751Z,14.00
2022-10-13T03:03:15.851Z,13.80
2022-10-13T03:06:57.760Z,13.70
2022-10-13T03:10:39.594Z,13.60
2022-10-13T03:14:21.479Z,13.50
2022-10-13T03:18:03.429Z,13.50
2022-10-13T03:21:45.456Z,13.30
2022-10-13T03:25:28.401Z,13.20
2022-10-13T03:29:18.226Z,13.10
2022-10-13T03:33:00.033Z,13.00
2022-10-13T03:36:41.956Z,13.00
2022-10-13T03:40:24.702Z,13.00
2022-10-13T03:44:07.888Z,12.90
2022-10-13T03:47:49.788Z,12.80
2022-10-13T03:51:31.890Z,12.80
2022-10-13T03:55:13.744Z,12.70
2022-10-13T03:58:58.003Z,12.60
2022-10-13T04:02:39.953Z,12.50
2022-10-13T04:06:23.242Z,12.50
2022-10-13T04:10:10.235Z,12.50
2022-10-13T04:13:53.504Z,12.50
2022-10-13T04:17:35.666Z,12.50
2022-10-13T04:21:17.593Z,12.40
2022-10-13T04:24:59.472Z,12.30
2022-10-13T04:28:42.820Z,12.30
2022-10-13T04:32:24.956Z,12.20
2022-10-13T04:36:09.289Z,12.10
2022-10-13T04:39:51.456Z,12.10
2022-10-13T04:43:34.129Z,12.00
2022-10-13T04:47:16.007Z,12.00
2022-10-13T04:51:09.167Z,11.90
2022-10-13T04:54:51.048Z,12.00
2022-10-13T04:58:33.215Z,11.90
2022-10-13T05:02:15.086Z,11.90
2022-10-13T05:05:56.934Z,11.90
2022-10-13T05:09:39.017Z,11.80
2022-10-13T05:13:20.905Z,11.80
2022-10-13T05:17:02.783Z,11.80
2022-10-13T05:20:44.725Z,11.80
2022-10-13T05:24:36.597Z,11.70
2022-10-13T05:28:18.597Z,11.70
2022-10-13T05:32:00.534Z,11.60
2022-10-13T05:35:42.396Z,11.60
2022-10-13T05:39:24.501Z,11.50
2022-10-13T05:43:06.362Z,11.50
2022-10-13T05:46:48.291Z,11.40
2022-10-13T05:50:30.361Z,11.30
2022-10-13T05:54:36.325Z,11.30
2022-10-13T05:58:18.528Z,11.30
2022-10-13T06:02:02.453Z,11.30
2022-10-13T06:05:47.526Z,11.20
2022-10-13T06:09:37.907Z,11.20
2022-10-13T06:13:19.850Z,11.20
2022-10-13T06:17:01.668Z,11.10
2022-10-13T06:20:43.758Z,11.10
2022-10-13T06:24:25.978Z,11.10
2022-10-13T06:28:07.989Z,11.10
2022-10-13T06:31:49.977Z,11.10
2022-10-13T06:35:31.817Z,11.10
2022-10-13T06:39:14.547Z,11.00
2022-10-13T06:42:56.407Z,11.10
2022-10-13T06:46:38.305Z,11.10
2022-10-13T06:50:20.886Z,11.10
2022-10-13T06:54:02.797Z,11.10
2022-10-13T06:57:44.706Z,11.20
2022-10-13T07:01:26.574Z,11.20
2022-10-13T07:05:08.813Z,11.20
2022-10-13T07:08:50.851Z,11.20
2022-10-13T07:12:35.256Z,11.20
2022-10-13T07:16:17.309Z,11.20
2022-10-13T07:20:01.337Z,11.30
2022-10-13T07:23:46.881Z,11.40
2022-10-13T07:27:28.797Z,11.40
2022-10-13T07:31:13.855Z,11.40
2022-10-13T07:34:55.738Z,11.50
2022-10-13T07:38:37.947Z,11.50
2022-10-13T07:42:20.069Z,11.80
2022-10-13T07:46:05.002Z,12.00
2022-10-13T07:49:48.977Z,12.10
2022-10-13T07:53:35.000Z,12.30
2022-10-13T07:57:17.096Z,12.50
2022-10-13T08:01:03.901Z,12.60
2022-10-13T08:04:46.077Z,12.90
2022-10-13T08:08:28.445Z,13.10
2022-10-13T08:12:10.932Z,13.30
2022-10-13T08:15:54.034Z,13.50
2022-10-13T08:19:37.154Z,13.60
2022-10-13T08:23:19.529Z,13.80
2022-10-13T08:27:02.194Z,14.00
2022-10-13T08:30:44.678Z,14.00
2022-10-13T08:34:26.808Z,14.10
2022-10-13T08:38:09.430Z,14.20
2022-10-13T08:41:52.119Z,14.40
2022-10-13T08:45:42.349Z,14.50
2022-10-13T08:49:24.450Z,14.60
2022-10-13T08:53:11.374Z,14.60
2022-10-13T08:56:53.774Z,14.60
2022-10-13T09:00:38.515Z,14.60
2022-10-13T09:04:41.480Z,14.60
2022-10-13T09:08:27.709Z,14.60
2022-10-13T09:12:10.944Z,14.70
2022-10-13T09:15:52.842Z,14.80
2022-10-13T09:19:36.614Z,14.90
2022-10-13T09:23:23.336Z,14.90
2022-10-13T09:27:13.605Z,15.00
2022-10-13T09:31:11.724Z,15.10
2022-10-13T09:35:22.586Z,15.30
2022-10-13T09:39:16.031Z,15.40
2022-10-13T09:43:00.081Z,15.50
2022-10-13T09:46:51.075Z,15.60
2022-10-13T09:50:35.833Z,15.90
2022-10-13T09:54:36.401Z,16.10
2022-10-13T09:58:31.626Z,16.50
2022-10-13T10:02:25.038Z,17.00
2022-10-13T10:06:14.778Z,17.60
2022-10-13T10:10:01.966Z,18.80
2022-10-13T10:13:44.086Z,20.00
2022-10-13T10:17:41.196Z,21.00
2022-10-13T10:21:26.229Z,22.10
2022-10-13T10:25:42.729Z,23.20
2022-10-13T10:29:59.904Z,23.20
2022-10-13T10:33:47.818Z,22.80
2022-10-13T10:37:55.114Z,22.30
2022-10-13T10:42:07.532Z,21.90
2022-10-13T10:45:49.812Z,21.90
2022-10-13T10:49:35.062Z,21.70
2022-10-13T10:53:48.705Z,21.50
2022-10-13T10:57:39.188Z,21.30
2022-10-13T11:01:42.534Z,21.40
2022-10-13T11:05:24.548Z,21.60
2022-10-13T11:09:06.926Z,22.30
2022-10-13T11:13:08.904Z,23.10
2022-10-13T11:17:20.244Z,23.10
2022-10-13T11:21:02.354Z,22.70
2022-10-13T11:24:53.049Z,22.20
2022-10-13T11:28:41.332Z,21.80
2022-10-13T11:32:31.025Z,21.60
2022-10-13T11:36:50.078Z,21.70
2022-10-13T11:41:03.289Z,21.90
2022-10-13T11:44:57.669Z,21.90
2022-10-13T11:49:12.887Z,21.60
2022-10-13T11:53:06.880Z,21.30
2022-10-13T11:56:52.123Z,21.10
2022-10-13T12:00:34.437Z,20.90
2022-10-13T12:04:16.512Z,20.70
2022-10-13T12:08:03.631Z,20.50
2022-10-13T12:11:58.870Z,20.20
2022-10-13T12:15:48.459Z,19.90
2022-10-13T12:19:31.902Z,19.60
2022-10-13T12:23:17.983Z,19.50
2022-10-13T12:27:09.641Z,19.30
2022-10-13T12:30:54.544Z,19.20
2022-10-13T12:34:38.840Z,19.20
2022-10-13T12:38:22.406Z,19.20
2022-10-13T12:42:07.831Z,19.20
2022-10-13T12:45:49.711Z,19.50
2022-10-13T12:49:32.759Z,20.80
2022-10-13T12:53:25.979Z,22.20
2022-10-13T12:57:19.855Z,23.60
2022-10-13T13:01:13.859Z,24.80
2022-10-13T13:04:56.430Z,25.80
2022-10-13T13:08:38.809Z,26.80
2022-10-13T13:12:23.613Z,27.60
2022-10-13T13:16:22.104Z,28.20
2022-10-13T13:20:33.090Z,29.00
2022-10-13T13:24:28.283Z,29.60
2022-10-13T13:28:17.721Z,30.10
2022-10-13T13:31:59.813Z,30.60
2022-10-13T13:35:41.965Z,31.00
2022-10-13T13:39:27.235Z,31.10
2022-10-13T13:43:12.211Z,31.40
2022-10-13T13:46:57.960Z,31.60
2022-10-13T13:50:40.339Z,31.60
2022-10-13T13:54:22.200Z,31.70
2022-10-13T13:58:04.262Z,31.70
2022-10-13T14:01:46.151Z,31.60
2022-10-13T14:05:28.232Z,31.10
2022-10-13T14:09:10.085Z,30.60
2022-10-13T14:12:52.834Z,29.80
2022-10-13T14:16:37.025Z,29.10
2022-10-13T14:20:19.027Z,28.30
2022-10-13T14:24:00.915Z,27.30
2022-10-13T14:27:42.785Z,25.90
2022-10-13T14:31:25.092Z,24.60
2022-10-13T14:35:07.829Z,23.60
2022-10-13T14:38:51.811Z,22.80
2022-10-13T14:42:33.894Z,22.10
2022-10-13T14:46:15.790Z,21.60
2022-10-13T14:49:58.011Z,21.10
2022-10-13T14:53:43.203Z,20.80
2022-10-13T14:57:28.958Z,20.50
2022-10-13T15:01:16.745Z,20.30
2022-10-13T15:05:01.880Z,20.10
2022-10-13T15:08:48.844Z,20.00
2022-10-13T15:12:34.281Z,19.80
2022-10-13T15:16:22.184Z,19.70
2022-10-13T15:20:17.418Z,19.50
2022-10-13T15:24:01.563Z,19.40
2022-10-13T15:27:43.605Z,19.20
2022-10-13T15:31:25.907Z,19.10
2022-10-13T15:35:08.272Z,19.00
2022-10-13T15:38:51.384Z,18.90
2022-10-13T15:42:33.340Z,18.90
2022-10-13T15:46:21.262Z,18.80
2022-10-13T15:50:03.469Z,18.70
2022-10-13T15:53:46.806Z,18.60
2022-10-13T15:57:30.236Z,18.60
2022-10-13T16:01:13.576Z,18.50
2022-10-13T16:04:56.798Z,18.40
2022-10-13T16:08:39.975Z,18.30
2022-10-13T16:12:24.356Z,18.20
2022-10-13T16:16:06.602Z,18.10
2022-10-13T16:19:48.476Z,18.00
2022-10-13T16:23:30.342Z,17.90
2022-10-13T16:27:12.245Z,17.80
2022-10-13T16:30:54.160Z,17.70
2022-10-13T16:34:36.311Z,17.60
2022-10-13T16:38:18.286Z,17.60
2022-10-13T16:42:00.241Z,17.50
2022-10-13T16:45:59.324Z,17.30
2022-10-13T16:49:41.998Z,17.30
2022-10-13T16:53:24.146Z,17.10
2022-10-13T16:57:05.990Z,17.00
2022-10-13T17:00:47.967Z,16.90
2022-10-13T17:04:31.031Z,16.80
2022-10-13T17:08:12.835Z,16.60
2022-10-13T17:11:54.670Z,16.50
2022-10-13T17:15:36.441Z,16.40
2022-10-13T17:19:18.364Z,16.30
2022-10-13T17:23:00.224Z,16.10
2022-10-13T17:26:42.186Z,16.00
2022-10-13T17:30:24.165Z,15.90
2022-10-13T17:34:06.479Z,15.80
2022-10-13T17:37:50.168Z,15.70
2022-10-13T17:41:32.400Z,15.60
2022-10-13T17:45:14.265Z,15.50
2022-10-13T17:48:57.557Z,15.50
2022-10-13T17:52:39.501Z,15.40
2022-10-13T17:56:23.416Z,15.30
2022-10-13T18:00:06.303Z,15.20
2022-10-13T18:03:51.431Z,15.10
2022-10-13T18:07:33.740Z,15.00
2022-10-13T18:11:17.713Z,15.00
2022-10-13T18:14:59.633Z,14.90
2022-10-13T18:18:43.844Z,14.80
2022-10-13T18:22:25.679Z,14.80
2022-10-13T18:26:12.106Z,14.70
2022-10-13T18:29:53.918Z,14.70
2022-10-13T18:33:36.462Z,14.60
2022-10-13T18:37:18.545Z,14.50
2022-10-13T18:41:00.793Z,14.50
2022-10-13T18:44:42.615Z,14.50
2022-10-13T18:48:24.527Z,14.40
2022-10-13T18:52:06.306Z,14.40
2022-10-13T18:55:48.502Z,14.30
2022-10-13T18:59:30.447Z,14.20
2022-10-13T19:03:13.369Z,14.20
2022-10-13T19:06:55.203Z,14.10
2022-10-13T19:10:37.212Z,14.10
2022-10-13T19:14:19.289Z,14.00
2022-10-13T19:18:01.335Z,14.10
2022-10-13T19:21:43.180Z,14.00
2022-10-13T19:25:25.676Z,14.00
2022-10-13T19:29:10.271Z,14.00
2022-10-13T19:32:52.325Z,13.90
2022-10-13T19:36:39.099Z,13.90
2022-10-13T19:40:21.066Z,13.90
2022-10-13T19:44:03.118Z,13.90
2022-10-13T19:47:45.009Z,13.80
2022-10-13T19:51:26.847Z,13.80
2022-10-13T19:55:09.445Z,13.80
2022-10-13T19:58:52.366Z,13.70
2022-10-13T20:02:34.288Z,13.60
2022-10-13T20:06:17.855Z,13.60
2022-10-13T20:09:59.738Z,13.60
2022-10-13T20:13:44.959Z,13.50
2022-10-13T20:17:26.811Z,13.50
2022-10-13T20:21:11.747Z,13.50
2022-10-13T20:24:53.607Z,13.50
2022-10-13T20:28:42.712Z,13.50
2022-10-13T20:32:25.118Z,13.50
2022-10-13T20:36:10.507Z,13.50
2022-10-13T20:39:52.568Z,13.40
2022-10-13T20:43:34.936Z,13.40
2022-10-13T20:47:16.726Z,13.40
2022-10-13T20:51:02.954Z,13.30
2022-10-13T20:54:44.782Z,13.30
2022-10-13T20:58:27.560Z,13.20
2022-10-13T21:02:13.228Z,13.20
2022-10-13T21:05:55.787Z,13.20
2022-10-13T21:09:37.715Z,13.20
2022-10-13T21:13:19.683Z,13.20
2022-10-13T21:17:02.001Z,13.10
2022-10-13T21:20:44.113Z,13.00
2022-10-13T21:24:25.965Z,13.00
2022-10-13T21:28:07.781Z,13.00
2022-10-13T21:31:49.601Z,12.90
2022-10-13T21:35:31.400Z,12.80
2022-10-13T21:39:13.555Z,12.80
2022-10-13T21:42:55.567Z,12.80
2022-10-13T21:46:37.405Z,12.80
2022-10-13T21:50:19.216Z,12.80
2022-10-13T21:54:10.782Z,12.90
2022-10-13T21:57:52.632Z,12.80
2022-10-13T22:01:34.859Z,12.80
2022-10-13T22:05:16.783Z,12.80
2022-10-13T22:09:00.760Z,12.80
2022-10-13T22:12:42.588Z,12.80
2022-10-13T22:16:34.578Z,12.80
2022-10-13T22:20:16.468Z,12.80
2022-10-13T22:24:01.048Z,12.80
2022-10-13T22:27:42.866Z,12.90
2022-10-13T22:31:25.436Z,12.80
2022-10-13T22:35:07.671Z,12.90
2022-10-13T22:38:51.416Z,12.90
2022-10-13T22:42:33.238Z,12.80
2022-10-13T22:46:17.524Z,12.80
2022-10-13T22:49:59.351Z,12.80
2022-10-13T22:53:41.285Z,12.80
2022-10-13T22:57:23.442Z,12.80
2022-10-13T23:01:10.267Z,12.80
2022-10-13T23:04:52.227Z,12.80
2022-10-13T23:08:35.012Z,12.80
2022-10-13T23:12:16.950Z,12.90
2022-10-13T23:16:11.441Z,13.00
2022-10-13T23:19:53.915Z,13.00
2022-10-13T23:23:36.046Z,13.00
2022-10-13T23:27:17.852Z,13.00
2022-10-13T23:31:01.696Z,13.00
2022-10-13T23:34:43.553Z,13.10
2022-10-13T23:38:26.585Z,13.10
2022-10-13T23:42:09.664Z,13.10
2022-10-13T23:45:51.460Z,13.10
2022-10-13T23:49:33.298Z,13.10
2022-10-13T23:53:15.169Z,13.10
2022-10-13T23:56:57.254Z,13.10
